sensor_id;sensor_type;location;lat;lon;timestamp;pressure;altitude;pressure_sealevel;temperature;humidity
69855;BME280;57146;48.140;16.304;2023-07-29T00:01:28;98909.13;;;21.10;64.55
69855;BME280;57146;48.140;16.304;2023-07-29T00:03:55;98901.47;;;21.05;65.01
69855;BME280;57146;48.140;16.304;2023-07-29T00:06:22;98908.72;;;21.01;65.06
69855;BME280;57146;48.140;16.304;2023-07-29T00:08:49;98901.44;;;20.91;65.17
69855;BME280;57146;48.140;16.304;2023-07-29T00:11:16;98912.50;;;20.89;65.46
69855;BME280;57146;48.140;16.304;2023-07-29T00:13:43;98908.25;;;20.81;65.68
69855;BME280;57146;48.140;16.304;2023-07-29T00:16:10;98909.34;;;20.66;66.22
69855;BME280;57146;48.140;16.304;2023-07-29T00:18:37;98908.56;;;20.58;66.70
69855;BME280;57146;48.140;16.304;2023-07-29T00:21:03;98909.66;;;20.50;67.05
69855;BME280;57146;48.140;16.304;2023-07-29T00:23:30;98908.47;;;20.44;67.32
69855;BME280;57146;48.140;16.304;2023-07-29T00:25:57;98903.84;;;20.41;67.56
69855;BME280;57146;48.140;16.304;2023-07-29T00:28:24;98904.59;;;20.38;67.73
69855;BME280;57146;48.140;16.304;2023-07-29T00:30:51;98906.13;;;20.31;67.99
69855;BME280;57146;48.140;16.304;2023-07-29T00:33:18;98905.34;;;20.34;67.98
69855;BME280;57146;48.140;16.304;2023-07-29T00:35:45;98906.47;;;20.30;68.06
69855;BME280;57146;48.140;16.304;2023-07-29T00:38:12;98907.94;;;20.24;68.56
69855;BME280;57146;48.140;16.304;2023-07-29T00:40:39;98898.06;;;20.24;68.69
69855;BME280;57146;48.140;16.304;2023-07-29T00:43:07;98896.50;;;20.23;68.29
69855;BME280;57146;48.140;16.304;2023-07-29T00:45:35;98901.50;;;20.25;68.06
69855;BME280;57146;48.140;16.304;2023-07-29T00:48:03;98895.41;;;20.28;68.19
69855;BME280;57146;48.140;16.304;2023-07-29T00:50:32;98893.50;;;20.28;68.46
69855;BME280;57146;48.140;16.304;2023-07-29T00:53:00;98890.06;;;20.28;68.09
69855;BME280;57146;48.140;16.304;2023-07-29T00:55:28;98885.84;;;20.27;68.30
69855;BME280;57146;48.140;16.304;2023-07-29T00:57:55;98894.97;;;20.22;68.47
69855;BME280;57146;48.140;16.304;2023-07-29T01:00:22;98891.53;;;20.22;68.76
69855;BME280;57146;48.140;16.304;2023-07-29T01:02:49;98899.56;;;20.22;68.84
69855;BME280;57146;48.140;16.304;2023-07-29T01:05:17;98899.91;;;20.20;68.90
69855;BME280;57146;48.140;16.304;2023-07-29T01:07:55;98897.25;;;20.20;68.63
69855;BME280;57146;48.140;16.304;2023-07-29T01:10:28;98890.78;;;20.21;68.78
69855;BME280;57146;48.140;16.304;2023-07-29T01:18:57;98887.75;;;20.26;68.74
69855;BME280;57146;48.140;16.304;2023-07-29T01:21:29;98893.03;;;20.19;69.34
69855;BME280;57146;48.140;16.304;2023-07-29T01:23:59;98902.94;;;20.15;69.33
69855;BME280;57146;48.140;16.304;2023-07-29T01:26:26;98900.25;;;20.12;69.61
69855;BME280;57146;48.140;16.304;2023-07-29T01:28:53;98892.63;;;20.10;69.68
69855;BME280;57146;48.140;16.304;2023-07-29T01:31:31;98897.94;;;20.06;69.64
69855;BME280;57146;48.140;16.304;2023-07-29T01:34:27;98895.22;;;19.99;69.96
69855;BME280;57146;48.140;16.304;2023-07-29T01:36:57;98900.22;;;20.04;69.98
69855;BME280;57146;48.140;16.304;2023-07-29T01:39:29;98904.78;;;20.04;70.21
69855;BME280;57146;48.140;16.304;2023-07-29T01:41:59;98891.06;;;20.09;69.70
69855;BME280;57146;48.140;16.304;2023-07-29T01:44:27;98884.22;;;20.12;69.82
69855;BME280;57146;48.140;16.304;2023-07-29T01:46:57;98887.25;;;20.06;69.96
69855;BME280;57146;48.140;16.304;2023-07-29T01:49:24;98877.69;;;20.05;70.19
69855;BME280;57146;48.140;16.304;2023-07-29T01:51:51;98879.59;;;20.05;70.34
69855;BME280;57146;48.140;16.304;2023-07-29T01:54:18;98877.72;;;20.09;70.44
69855;BME280;57146;48.140;16.304;2023-07-29T01:56:46;98892.63;;;20.10;70.37
69855;BME280;57146;48.140;16.304;2023-07-29T01:59:13;98888.09;;;20.18;69.87
69855;BME280;57146;48.140;16.304;2023-07-29T02:01:40;98881.59;;;20.19;69.92
69855;BME280;57146;48.140;16.304;2023-07-29T02:04:07;98889.97;;;20.14;70.01
69855;BME280;57146;48.140;16.304;2023-07-29T02:06:34;98881.56;;;20.15;69.97
69855;BME280;57146;48.140;16.304;2023-07-29T02:09:01;98888.84;;;20.18;69.76
69855;BME280;57146;48.140;16.304;2023-07-29T02:11:28;98885.81;;;20.23;69.60
69855;BME280;57146;48.140;16.304;2023-07-29T02:13:56;98887.34;;;20.21;70.63
69855;BME280;57146;48.140;16.304;2023-07-29T02:16:23;98898.41;;;20.23;70.68
69855;BME280;57146;48.140;16.304;2023-07-29T02:18:50;98888.81;;;20.15;70.28
69855;BME280;57146;48.140;16.304;2023-07-29T02:21:21;98882.69;;;20.11;70.38
69855;BME280;57146;48.140;16.304;2023-07-29T02:23:48;98884.59;;;20.06;70.97
69855;BME280;57146;48.140;16.304;2023-07-29T02:26:16;98882.69;;;20.07;69.45
69855;BME280;57146;48.140;16.304;2023-07-29T02:28:44;98886.88;;;20.08;70.06
69855;BME280;57146;48.140;16.304;2023-07-29T02:33:44;98886.91;;;20.15;68.33
69855;BME280;57146;48.140;16.304;2023-07-29T02:36:12;98887.31;;;20.17;67.97
69855;BME280;57146;48.140;16.304;2023-07-29T02:38:40;98891.91;;;20.20;67.33
69855;BME280;57146;48.140;16.304;2023-07-29T02:41:09;98896.91;;;20.25;66.34
69855;BME280;57146;48.140;16.304;2023-07-29T02:43:36;98887.38;;;20.24;66.41
69855;BME280;57146;48.140;16.304;2023-07-29T02:46:03;98877.03;;;20.23;65.94
69855;BME280;57146;48.140;16.304;2023-07-29T02:48:31;98881.22;;;20.24;65.49
69855;BME280;57146;48.140;16.304;2023-07-29T02:50:58;98883.94;;;20.31;63.09
69855;BME280;57146;48.140;16.304;2023-07-29T02:53:25;98879.75;;;20.33;63.28
69855;BME280;57146;48.140;16.304;2023-07-29T02:55:52;98885.50;;;20.36;63.12
69855;BME280;57146;48.140;16.304;2023-07-29T02:58:19;98884.50;;;20.58;60.22
69855;BME280;57146;48.140;16.304;2023-07-29T03:00:46;98892.16;;;20.70;59.65
69855;BME280;57146;48.140;16.304;2023-07-29T03:03:14;98894.50;;;20.79;59.27
69855;BME280;57146;48.140;16.304;2023-07-29T03:05:41;98895.28;;;20.83;59.17
69855;BME280;57146;48.140;16.304;2023-07-29T03:08:08;98889.19;;;20.90;58.56
69855;BME280;57146;48.140;16.304;2023-07-29T03:10:35;98876.22;;;20.92;58.62
69855;BME280;57146;48.140;16.304;2023-07-29T03:13:02;98890.72;;;20.91;58.78
69855;BME280;57146;48.140;16.304;2023-07-29T03:15:29;98887.28;;;20.90;58.52
69855;BME280;57146;48.140;16.304;2023-07-29T03:17:57;98887.69;;;20.92;58.02
69855;BME280;57146;48.140;16.304;2023-07-29T03:20:24;98887.69;;;20.92;58.03
69855;BME280;57146;48.140;16.304;2023-07-29T03:22:52;98895.31;;;20.90;58.45
69855;BME280;57146;48.140;16.304;2023-07-29T03:25:19;98905.59;;;20.85;59.03
69855;BME280;57146;48.140;16.304;2023-07-29T03:27:46;98904.06;;;20.84;58.48
69855;BME280;57146;48.140;16.304;2023-07-29T03:30:13;98910.16;;;20.80;59.66
69855;BME280;57146;48.140;16.304;2023-07-29T03:32:43;98909.41;;;20.76;59.25
69855;BME280;57146;48.140;16.304;2023-07-29T03:35:11;98914.38;;;20.74;59.48
69855;BME280;57146;48.140;16.304;2023-07-29T03:37:38;98910.16;;;20.73;59.17
69855;BME280;57146;48.140;16.304;2023-07-29T03:40:06;98912.81;;;20.73;59.37
69855;BME280;57146;48.140;16.304;2023-07-29T03:42:33;98918.16;;;20.73;59.43
69855;BME280;57146;48.140;16.304;2023-07-29T03:45:01;98914.34;;;20.71;59.47
69855;BME280;57146;48.140;16.304;2023-07-29T03:47:28;98917.38;;;20.69;59.37
69855;BME280;57146;48.140;16.304;2023-07-29T03:49:56;98918.53;;;20.68;60.75
69855;BME280;57146;48.140;16.304;2023-07-29T03:52:23;98921.97;;;20.65;59.96
69855;BME280;57146;48.140;16.304;2023-07-29T03:54:50;98928.81;;;20.63;59.86
69855;BME280;57146;48.140;16.304;2023-07-29T03:57:17;98931.88;;;20.61;59.85
69855;BME280;57146;48.140;16.304;2023-07-29T03:59:44;98923.44;;;20.59;60.08
69855;BME280;57146;48.140;16.304;2023-07-29T04:02:11;98927.28;;;20.58;60.13
69855;BME280;57146;48.140;16.304;2023-07-29T04:04:39;98931.84;;;20.54;60.46
69855;BME280;57146;48.140;16.304;2023-07-29T04:07:06;98935.63;;;20.49;60.32
69855;BME280;57146;48.140;16.304;2023-07-29T04:09:33;98936.34;;;20.46;60.52
69855;BME280;57146;48.140;16.304;2023-07-29T04:12:00;98933.69;;;20.46;60.70
69855;BME280;57146;48.140;16.304;2023-07-29T04:14:27;98932.50;;;20.44;60.94
69855;BME280;57146;48.140;16.304;2023-07-29T04:16:54;98942.44;;;20.43;61.17
69855;BME280;57146;48.140;16.304;2023-07-29T04:19:21;98937.47;;;20.42;60.92
69855;BME280;57146;48.140;16.304;2023-07-29T04:21:48;98934.41;;;20.40;60.83
69855;BME280;57146;48.140;16.304;2023-07-29T04:24:15;98948.91;;;20.39;60.98
69855;BME280;57146;48.140;16.304;2023-07-29T04:26:42;98951.56;;;20.35;61.09
69855;BME280;57146;48.140;16.304;2023-07-29T04:29:09;98960.72;;;20.34;61.15
69855;BME280;57146;48.140;16.304;2023-07-29T04:31:36;98966.03;;;20.30;61.41
69855;BME280;57146;48.140;16.304;2023-07-29T04:34:04;98966.00;;;20.27;61.60
69855;BME280;57146;48.140;16.304;2023-07-29T04:36:32;98967.56;;;20.28;61.41
69855;BME280;57146;48.140;16.304;2023-07-29T04:38:59;98977.88;;;20.29;61.77
69855;BME280;57146;48.140;16.304;2023-07-29T04:41:26;98980.13;;;20.27;61.41
69855;BME280;57146;48.140;16.304;2023-07-29T04:43:53;98974.41;;;20.25;61.62
69855;BME280;57146;48.140;16.304;2023-07-29T04:46:20;98974.38;;;20.22;61.80
69855;BME280;57146;48.140;16.304;2023-07-29T04:48:47;98972.84;;;20.21;62.13
69855;BME280;57146;48.140;16.304;2023-07-29T04:51:14;98981.25;;;20.23;62.01
69855;BME280;57146;48.140;16.304;2023-07-29T04:53:41;98982.03;;;20.27;62.16
69855;BME280;57146;48.140;16.304;2023-07-29T04:56:08;98987.41;;;20.30;61.98
69855;BME280;57146;48.140;16.304;2023-07-29T04:58:35;98985.53;;;20.34;62.02
69855;BME280;57146;48.140;16.304;2023-07-29T05:01:03;98985.19;;;20.40;61.72
69855;BME280;57146;48.140;16.304;2023-07-29T05:03:30;98982.53;;;20.43;61.59
69855;BME280;57146;48.140;16.304;2023-07-29T05:05:58;98992.13;;;20.48;61.62
69855;BME280;57146;48.140;16.304;2023-07-29T05:08:27;98984.56;;;20.53;61.19
69855;BME280;57146;48.140;16.304;2023-07-29T05:10:54;98971.59;;;20.59;61.26
69855;BME280;57146;48.140;16.304;2023-07-29T05:13:22;98978.50;;;20.64;61.46
69855;BME280;57146;48.140;16.304;2023-07-29T05:15:49;98979.66;;;20.70;61.25
69855;BME280;57146;48.140;16.304;2023-07-29T05:18:17;98972.41;;;20.70;61.31
69855;BME280;57146;48.140;16.304;2023-07-29T05:20:44;98980.06;;;20.72;61.69
69855;BME280;57146;48.140;16.304;2023-07-29T05:23:11;98973.97;;;20.71;61.51
69855;BME280;57146;48.140;16.304;2023-07-29T05:25:38;98979.66;;;20.70;61.99
69855;BME280;57146;48.140;16.304;2023-07-29T05:28:05;98981.56;;;20.69;61.89
69855;BME280;57146;48.140;16.304;2023-07-29T05:30:33;98987.69;;;20.70;62.01
69855;BME280;57146;48.140;16.304;2023-07-29T05:33:00;98981.19;;;20.67;62.22
69855;BME280;57146;48.140;16.304;2023-07-29T05:35:27;98981.97;;;20.71;62.10
69855;BME280;57146;48.140;16.304;2023-07-29T05:37:55;98990.78;;;20.72;62.18
69855;BME280;57146;48.140;16.304;2023-07-29T05:40:22;98990.00;;;20.71;62.18
69855;BME280;57146;48.140;16.304;2023-07-29T05:42:49;98979.31;;;20.75;62.60
69855;BME280;57146;48.140;16.304;2023-07-29T05:45:16;98979.34;;;20.78;62.25
69855;BME280;57146;48.140;16.304;2023-07-29T05:47:43;98975.94;;;20.85;62.35
69855;BME280;57146;48.140;16.304;2023-07-29T05:50:10;98976.34;;;20.91;62.25
69855;BME280;57146;48.140;16.304;2023-07-29T05:52:37;98983.25;;;20.99;61.71
69855;BME280;57146;48.140;16.304;2023-07-29T05:55:05;98979.47;;;21.03;61.62
69855;BME280;57146;48.140;16.304;2023-07-29T05:57:32;98977.56;;;21.08;61.48
69855;BME280;57146;48.140;16.304;2023-07-29T05:59:59;98986.00;;;21.10;61.50
69855;BME280;57146;48.140;16.304;2023-07-29T06:02:26;98973.38;;;21.14;61.25
69855;BME280;57146;48.140;16.304;2023-07-29T06:04:53;98977.97;;;21.17;61.36
69855;BME280;57146;48.140;16.304;2023-07-29T06:07:20;98974.16;;;21.21;61.26
69855;BME280;57146;48.140;16.304;2023-07-29T06:09:47;98972.66;;;21.24;61.12
69855;BME280;57146;48.140;16.304;2023-07-29T06:12:14;98980.69;;;21.27;60.95
69855;BME280;57146;48.140;16.304;2023-07-29T06:14:41;98981.06;;;21.29;60.88
69855;BME280;57146;48.140;16.304;2023-07-29T06:17:08;98986.06;;;21.31;60.70
69855;BME280;57146;48.140;16.304;2023-07-29T06:19:36;98983.41;;;21.35;60.57
69855;BME280;57146;48.140;16.304;2023-07-29T06:22:03;98976.53;;;21.37;60.66
69855;BME280;57146;48.140;16.304;2023-07-29T06:24:30;98984.97;;;21.39;60.57
69855;BME280;57146;48.140;16.304;2023-07-29T06:26:57;98987.25;;;21.41;60.43
69855;BME280;57146;48.140;16.304;2023-07-29T06:29:24;98981.13;;;21.44;60.13
69855;BME280;57146;48.140;16.304;2023-07-29T06:31:51;98983.44;;;21.45;60.07
69855;BME280;57146;48.140;16.304;2023-07-29T06:34:18;98979.63;;;21.50;59.92
69855;BME280;57146;48.140;16.304;2023-07-29T06:36:45;98980.00;;;21.52;60.19
69855;BME280;57146;48.140;16.304;2023-07-29T06:39:12;98980.38;;;21.54;60.60
69855;BME280;57146;48.140;16.304;2023-07-29T06:41:39;98989.19;;;21.58;60.44
69855;BME280;57146;48.140;16.304;2023-07-29T06:44:06;98986.91;;;21.60;59.76
69855;BME280;57146;48.140;16.304;2023-07-29T06:46:33;98982.69;;;21.66;60.30
69855;BME280;57146;48.140;16.304;2023-07-29T06:49:00;98977.75;;;21.72;59.77
69855;BME280;57146;48.140;16.304;2023-07-29T06:51:27;98977.34;;;21.81;61.33
69855;BME280;57146;48.140;16.304;2023-07-29T06:53:54;98972.78;;;21.88;59.66
69855;BME280;57146;48.140;16.304;2023-07-29T06:56:21;98970.09;;;21.95;59.55
69855;BME280;57146;48.140;16.304;2023-07-29T06:58:48;98969.72;;;22.00;58.86
69855;BME280;57146;48.140;16.304;2023-07-29T07:01:15;98970.09;;;22.03;58.86
69855;BME280;57146;48.140;16.304;2023-07-29T07:03:42;98972.41;;;22.04;58.51
69855;BME280;57146;48.140;16.304;2023-07-29T07:06:09;98971.63;;;22.07;58.52
69855;BME280;57146;48.140;16.304;2023-07-29T07:08:36;98974.31;;;22.07;58.15
69855;BME280;57146;48.140;16.304;2023-07-29T07:11:03;98967.03;;;22.11;58.07
69855;BME280;57146;48.140;16.304;2023-07-29T07:13:30;98977.41;;;22.16;58.22
69855;BME280;57146;48.140;16.304;2023-07-29T07:15:57;98969.72;;;22.26;58.49
69855;BME280;57146;48.140;16.304;2023-07-29T07:18:24;98974.72;;;22.34;58.49
69855;BME280;57146;48.140;16.304;2023-07-29T07:20:51;98972.00;;;22.45;59.47
69855;BME280;57146;48.140;16.304;2023-07-29T07:23:18;98967.00;;;22.58;59.67
69855;BME280;57146;48.140;16.304;2023-07-29T07:25:45;98973.09;;;22.69;57.74
69855;BME280;57146;48.140;16.304;2023-07-29T07:28:12;98966.19;;;22.75;57.82
69855;BME280;57146;48.140;16.304;2023-07-29T07:30:40;98960.00;;;22.89;57.38
69855;BME280;57146;48.140;16.304;2023-07-29T07:33:07;98961.94;;;22.92;56.93
69855;BME280;57146;48.140;16.304;2023-07-29T07:35:35;98960.72;;;23.04;57.22
69855;BME280;57146;48.140;16.304;2023-07-29T07:38:02;98958.78;;;23.11;56.46
69855;BME280;57146;48.140;16.304;2023-07-29T07:40:30;98962.19;;;23.19;57.56
69855;BME280;57146;48.140;16.304;2023-07-29T07:42:57;98960.31;;;23.16;56.56
69855;BME280;57146;48.140;16.304;2023-07-29T07:45:24;98955.63;;;23.27;56.01
69855;BME280;57146;48.140;16.304;2023-07-29T07:47:52;98957.34;;;23.62;55.60
69855;BME280;57146;48.140;16.304;2023-07-29T07:50:20;98953.28;;;23.92;54.25
69855;BME280;57146;48.140;16.304;2023-07-29T07:52:47;98952.06;;;24.00;53.80
69855;BME280;57146;48.140;16.304;2023-07-29T07:55:14;98947.16;;;23.92;53.55
69855;BME280;57146;48.140;16.304;2023-07-29T07:57:41;98952.19;;;24.31;53.48
69855;BME280;57146;48.140;16.304;2023-07-29T08:00:08;98945.34;;;24.60;51.79
69855;BME280;57146;48.140;16.304;2023-07-29T08:02:39;98944.19;;;24.61;51.35
69855;BME280;57146;48.140;16.304;2023-07-29T08:05:06;98939.97;;;24.60;50.98
69855;BME280;57146;48.140;16.304;2023-07-29T08:07:33;98956.06;;;24.64;51.77
69855;BME280;57146;48.140;16.304;2023-07-29T08:10:00;98942.03;;;24.49;53.20
69855;BME280;57146;48.140;16.304;2023-07-29T08:12:27;98944.47;;;24.71;51.63
69855;BME280;57146;48.140;16.304;2023-07-29T08:14:54;98947.19;;;25.01;50.36
69855;BME280;57146;48.140;16.304;2023-07-29T08:17:21;98943.44;;;25.26;50.46
69855;BME280;57146;48.140;16.304;2023-07-29T08:19:47;98948.94;;;25.42;49.31
69855;BME280;57146;48.140;16.304;2023-07-29T08:22:14;98936.59;;;25.45;48.79
69855;BME280;57146;48.140;16.304;2023-07-29T08:24:41;98944.09;;;25.57;48.91
69855;BME280;57146;48.140;16.304;2023-07-29T08:27:08;98933.69;;;25.59;48.88
69855;BME280;57146;48.140;16.304;2023-07-29T08:29:35;98930.19;;;25.62;49.81
69855;BME280;57146;48.140;16.304;2023-07-29T08:32:02;98929.81;;;25.37;48.65
69855;BME280;57146;48.140;16.304;2023-07-29T08:34:29;98933.69;;;25.05;49.72
69855;BME280;57146;48.140;16.304;2023-07-29T08:36:56;98934.25;;;24.89;49.99
69855;BME280;57146;48.140;16.304;2023-07-29T08:39:23;98935.91;;;24.79;51.33
69855;BME280;57146;48.140;16.304;2023-07-29T08:42:11;98931.22;;;24.53;51.30
69855;BME280;57146;48.140;16.304;2023-07-29T08:44:42;98939.25;;;24.56;51.45
69855;BME280;57146;48.140;16.304;2023-07-29T08:47:10;98924.50;;;24.68;52.52
69855;BME280;57146;48.140;16.304;2023-07-29T08:49:38;98926.88;;;24.63;51.22
69855;BME280;57146;48.140;16.304;2023-07-29T08:52:06;98916.34;;;25.06;52.28
69855;BME280;57146;48.140;16.304;2023-07-29T08:54:33;98915.16;;;25.38;49.80
69855;BME280;57146;48.140;16.304;2023-07-29T08:57:01;98916.69;;;25.39;48.92
69855;BME280;57146;48.140;16.304;2023-07-29T08:59:29;98909.72;;;25.41;49.35
69855;BME280;57146;48.140;16.304;2023-07-29T09:01:57;98906.97;;;25.68;49.27
69855;BME280;57146;48.140;16.304;2023-07-29T09:04:25;98902.78;;;25.91;48.62
69855;BME280;57146;48.140;16.304;2023-07-29T09:06:53;98905.94;;;26.09;47.94
69855;BME280;57146;48.140;16.304;2023-07-29T09:09:20;98900.56;;;26.29;47.52
69855;BME280;57146;48.140;16.304;2023-07-29T09:11:48;98898.75;;;26.42;48.22
69855;BME280;57146;48.140;16.304;2023-07-29T09:14:15;98898.19;;;26.31;46.66
69855;BME280;57146;48.140;16.304;2023-07-29T09:16:42;98898.88;;;25.68;47.30
69855;BME280;57146;48.140;16.304;2023-07-29T09:19:10;98895.09;;;25.66;48.17
69855;BME280;57146;48.140;16.304;2023-07-29T09:21:40;98889.66;;;25.93;47.65
69855;BME280;57146;48.140;16.304;2023-07-29T09:24:08;98883.66;;;26.05;46.52
69855;BME280;57146;48.140;16.304;2023-07-29T09:26:35;98885.97;;;26.26;47.79
69855;BME280;57146;48.140;16.304;2023-07-29T09:29:03;98882.91;;;26.44;46.14
69855;BME280;57146;48.140;16.304;2023-07-29T09:31:30;98885.81;;;26.14;45.86
69855;BME280;57146;48.140;16.304;2023-07-29T09:33:58;98883.47;;;26.16;46.21
69855;BME280;57146;48.140;16.304;2023-07-29T09:36:26;98871.75;;;26.02;46.65
69855;BME280;57146;48.140;16.304;2023-07-29T09:38:54;98877.16;;;26.02;47.32
69855;BME280;57146;48.140;16.304;2023-07-29T09:41:26;98876.53;;;26.35;46.16
69855;BME280;57146;48.140;16.304;2023-07-29T09:44:01;98873.13;;;26.54;45.68
69855;BME280;57146;48.140;16.304;2023-07-29T09:46:34;98867.00;;;26.30;45.99
69855;BME280;57146;48.140;16.304;2023-07-29T09:49:03;98860.34;;;26.35;46.23
69855;BME280;57146;48.140;16.304;2023-07-29T09:51:30;98858.69;;;26.21;46.23
69855;BME280;57146;48.140;16.304;2023-07-29T09:54:02;98857.44;;;26.45;46.12
69855;BME280;57146;48.140;16.304;2023-07-29T09:56:29;98854.00;;;26.65;46.00
69855;BME280;57146;48.140;16.304;2023-07-29T09:58:57;98849.69;;;26.67;45.57
69855;BME280;57146;48.140;16.304;2023-07-29T10:01:24;98851.75;;;26.80;44.78
69855;BME280;57146;48.140;16.304;2023-07-29T10:03:51;98843.84;;;27.05;43.80
69855;BME280;57146;48.140;16.304;2023-07-29T10:06:19;98848.00;;;27.10;44.03
69855;BME280;57146;48.140;16.304;2023-07-29T10:08:47;98852.34;;;27.24;44.21
69855;BME280;57146;48.140;16.304;2023-07-29T10:11:16;98846.34;;;27.16;43.61
69855;BME280;57146;48.140;16.304;2023-07-29T10:13:43;98835.38;;;27.23;43.79
69855;BME280;57146;48.140;16.304;2023-07-29T10:16:30;98839.47;;;27.11;43.97
69855;BME280;57146;48.140;16.304;2023-07-29T10:18:59;98845.81;;;27.05;43.76
69855;BME280;57146;48.140;16.304;2023-07-29T10:21:27;98845.03;;;27.04;43.73
69855;BME280;57146;48.140;16.304;2023-07-29T10:23:56;98844.09;;;26.94;44.08
69855;BME280;57146;48.140;16.304;2023-07-29T10:26:28;98836.41;;;26.77;43.50
69855;BME280;57146;48.140;16.304;2023-07-29T10:28:57;98838.50;;;26.85;43.52
69855;BME280;57146;48.140;16.304;2023-07-29T10:31:26;98844.97;;;27.08;43.59
69855;BME280;57146;48.140;16.304;2023-07-29T10:33:54;98849.03;;;27.16;42.58
69855;BME280;57146;48.140;16.304;2023-07-29T10:36:22;98849.59;;;27.07;43.02
69855;BME280;57146;48.140;16.304;2023-07-29T10:38:51;98841.06;;;27.09;42.76
69855;BME280;57146;48.140;16.304;2023-07-29T10:41:18;98845.25;;;27.30;42.65
69855;BME280;57146;48.140;16.304;2023-07-29T10:43:45;98846.84;;;27.43;42.43
69855;BME280;57146;48.140;16.304;2023-07-29T10:54:08;98815.75;;;27.03;42.51
69855;BME280;57146;48.140;16.304;2023-07-29T10:56:41;98819.69;;;26.82;44.67
69855;BME280;57146;48.140;16.304;2023-07-29T11:01:40;98809.06;;;26.91;43.13
69855;BME280;57146;48.140;16.304;2023-07-29T11:12:49;98798.38;;;27.20;45.43
69855;BME280;57146;48.140;16.304;2023-07-29T11:15:24;98796.88;;;27.19;43.32
69855;BME280;57146;48.140;16.304;2023-07-29T11:17:56;98799.72;;;27.28;43.37
69855;BME280;57146;48.140;16.304;2023-07-29T11:20:28;98799.06;;;27.24;42.79
69855;BME280;57146;48.140;16.304;2023-07-29T11:22:58;98787.03;;;27.41;43.37
69855;BME280;57146;48.140;16.304;2023-07-29T11:25:27;98784.31;;;27.58;42.62
69855;BME280;57146;48.140;16.304;2023-07-29T11:27:56;98780.69;;;27.64;44.31
69855;BME280;57146;48.140;16.304;2023-07-29T11:30:23;98778.91;;;27.58;43.06
69855;BME280;57146;48.140;16.304;2023-07-29T11:32:51;98770.06;;;27.57;43.49
69855;BME280;57146;48.140;16.304;2023-07-29T11:35:19;98775.78;;;27.59;43.08
69855;BME280;57146;48.140;16.304;2023-07-29T11:37:48;98780.06;;;27.57;42.89
69855;BME280;57146;48.140;16.304;2023-07-29T11:40:20;98788.72;;;27.52;42.76
69855;BME280;57146;48.140;16.304;2023-07-29T11:42:49;98793.88;;;27.46;42.41
69855;BME280;57146;48.140;16.304;2023-07-29T11:45:16;98782.66;;;27.48;42.29
69855;BME280;57146;48.140;16.304;2023-07-29T11:47:44;98789.16;;;27.50;44.18
69855;BME280;57146;48.140;16.304;2023-07-29T11:50:12;98787.53;;;27.53;42.37
69855;BME280;57146;48.140;16.304;2023-07-29T11:52:42;98787.44;;;27.56;42.66
69855;BME280;57146;48.140;16.304;2023-07-29T11:55:09;98781.38;;;27.52;43.40
69855;BME280;57146;48.140;16.304;2023-07-29T11:57:38;98784.50;;;27.51;44.21
69855;BME280;57146;48.140;16.304;2023-07-29T12:00:09;98770.66;;;27.49;44.03
69855;BME280;57146;48.140;16.304;2023-07-29T12:02:39;98780.59;;;27.52;43.08
69855;BME280;57146;48.140;16.304;2023-07-29T12:05:07;98775.59;;;27.66;42.90
69855;BME280;57146;48.140;16.304;2023-07-29T12:07:35;98766.19;;;27.71;41.67
69855;BME280;57146;48.140;16.304;2023-07-29T12:10:03;98757.41;;;27.83;39.98
69855;BME280;57146;48.140;16.304;2023-07-29T12:12:30;98746.19;;;27.98;41.68
69855;BME280;57146;48.140;16.304;2023-07-29T12:14:57;98761.47;;;28.04;40.58
69855;BME280;57146;48.140;16.304;2023-07-29T12:17:24;98757.84;;;27.95;41.30
69855;BME280;57146;48.140;16.304;2023-07-29T12:19:54;98777.28;;;27.77;40.64
69855;BME280;57146;48.140;16.304;2023-07-29T12:22:21;98773.13;;;27.72;40.49
69855;BME280;57146;48.140;16.304;2023-07-29T12:24:50;98764.78;;;27.96;40.19
69855;BME280;57146;48.140;16.304;2023-07-29T12:27:18;98762.47;;;28.23;38.21
69855;BME280;57146;48.140;16.304;2023-07-29T12:29:51;98759.19;;;28.15;38.29
69855;BME280;57146;48.140;16.304;2023-07-29T12:32:18;98751.56;;;28.39;38.51
69855;BME280;57146;48.140;16.304;2023-07-29T12:34:45;98756.88;;;28.56;38.52
69855;BME280;57146;48.140;16.304;2023-07-29T12:37:12;98770.31;;;28.72;38.81
69855;BME280;57146;48.140;16.304;2023-07-29T12:39:40;98766.41;;;28.60;38.64
69855;BME280;57146;48.140;16.304;2023-07-29T12:42:10;98764.56;;;28.70;39.24
69855;BME280;57146;48.140;16.304;2023-07-29T12:44:38;98764.44;;;28.74;39.53
69855;BME280;57146;48.140;16.304;2023-07-29T12:47:06;98758.59;;;29.01;39.15
69855;BME280;57146;48.140;16.304;2023-07-29T12:49:33;98769.44;;;29.01;37.81
69855;BME280;57146;48.140;16.304;2023-07-29T12:52:00;98769.31;;;29.04;38.89
69855;BME280;57146;48.140;16.304;2023-07-29T12:54:27;98758.47;;;28.92;38.91
69855;BME280;57146;48.140;16.304;2023-07-29T12:56:54;98756.66;;;28.76;39.02
69855;BME280;57146;48.140;16.304;2023-07-29T12:59:21;98758.59;;;28.75;38.31
69855;BME280;57146;48.140;16.304;2023-07-29T13:01:48;98759.44;;;28.98;38.08
69855;BME280;57146;48.140;16.304;2023-07-29T13:04:15;98757.16;;;29.09;37.43
69855;BME280;57146;48.140;16.304;2023-07-29T13:06:41;98761.81;;;28.96;36.46
69855;BME280;57146;48.140;16.304;2023-07-29T13:09:08;98765.88;;;28.78;37.14
69855;BME280;57146;48.140;16.304;2023-07-29T13:11:35;98761.09;;;28.44;37.68
69855;BME280;57146;48.140;16.304;2023-07-29T13:14:02;98763.66;;;28.22;38.65
69855;BME280;57146;48.140;16.304;2023-07-29T13:16:29;98762.03;;;28.37;38.43
69855;BME280;57146;48.140;16.304;2023-07-29T13:18:56;98755.97;;;28.33;38.85
69855;BME280;57146;48.140;16.304;2023-07-29T13:21:23;98754.69;;;28.25;38.85